createdAt,value
2023-02-13T00:00:46.568Z,13.27
2023-02-13T00:03:15.710Z,12.93
2023-02-13T00:05:43.723Z,13.73
2023-02-13T00:08:11.977Z,11.40
2023-02-13T00:10:41.486Z,13.50
2023-02-13T00:13:09.690Z,13.50
2023-02-13T00:15:37.839Z,11.83
2023-02-13T00:18:06.588Z,14.67
2023-02-13T00:20:34.789Z,14.03
2023-02-13T00:23:02.794Z,13.70
2023-02-13T00:25:30.851Z,15.43
2023-02-13T00:28:00.453Z,13.00
2023-02-13T00:30:28.818Z,12.20
2023-02-13T00:32:56.956Z,12.73
2023-02-13T00:35:26.202Z,11.83
2023-02-13T00:37:54.387Z,14.10
2023-02-13T00:40:25.941Z,12.77
2023-02-13T00:42:54.080Z,13.20
2023-02-13T00:45:23.652Z,12.30
2023-02-13T00:47:51.806Z,14.43
2023-02-13T00:50:22.227Z,13.60
2023-02-13T00:52:50.248Z,13.93
2023-02-13T00:55:18.467Z,13.80
2023-02-13T00:57:46.602Z,12.63
2023-02-13T01:00:16.057Z,13.30
2023-02-13T01:02:45.505Z,13.97
2023-02-13T01:05:13.620Z,15.33
2023-02-13T01:07:41.689Z,15.30
2023-02-13T01:10:10.108Z,15.37
2023-02-13T01:12:38.480Z,13.70
2023-02-13T01:15:08.875Z,14.80
2023-02-13T01:17:39.687Z,14.30
2023-02-13T01:20:11.305Z,13.77
2023-02-13T01:22:39.650Z,13.80
2023-02-13T01:25:08.694Z,15.17
2023-02-13T01:27:38.070Z,14.23
2023-02-13T01:30:10.538Z,13.67
2023-02-13T01:32:39.086Z,14.87
2023-02-13T01:35:09.423Z,13.30
2023-02-13T01:37:38.976Z,12.83
2023-02-13T01:40:09.040Z,15.17
2023-02-13T01:42:37.086Z,12.50
2023-02-13T01:45:06.956Z,12.50
2023-02-13T01:47:41.259Z,13.57
2023-02-13T01:50:17.524Z,14.03
2023-02-13T01:52:50.511Z,12.30
2023-02-13T01:55:19.563Z,13.40
2023-02-13T01:57:54.187Z,11.23
2023-02-13T02:00:23.003Z,12.10
2023-02-13T02:02:55.295Z,13.27
2023-02-13T02:05:29.920Z,11.40
2023-02-13T02:08:01.251Z,13.37
2023-02-13T02:10:29.472Z,13.60
2023-02-13T02:13:04.380Z,12.27
2023-02-13T02:15:32.855Z,13.97
2023-02-13T02:18:01.096Z,13.97
2023-02-13T02:20:55.765Z,11.37
2023-02-13T02:24:01.900Z,10.53
2023-02-13T02:27:10.114Z,11.47
2023-02-13T02:30:12.900Z,12.50
2023-02-13T02:32:57.172Z,12.27
2023-02-13T02:35:34.677Z,11.63
2023-02-13T02:38:27.149Z,13.60
2023-02-13T02:41:04.888Z,13.20
2023-02-13T02:43:50.614Z,12.10
2023-02-13T02:46:26.350Z,12.37
2023-02-13T02:49:22.603Z,13.50
2023-02-13T02:52:04.497Z,12.20
2023-02-13T02:54:57.694Z,12.80
2023-02-13T02:57:51.572Z,12.33
2023-02-13T03:00:42.525Z,12.00
2023-02-13T03:03:35.495Z,13.10
2023-02-13T03:06:14.104Z,11.00
2023-02-13T03:09:02.004Z,10.67
2023-02-13T03:11:47.638Z,12.17
2023-02-13T03:14:20.346Z,11.57
2023-02-13T03:17:07.039Z,11.60
2023-02-13T03:20:02.356Z,11.10
2023-02-13T03:22:40.895Z,10.73
2023-02-13T03:25:18.538Z,11.10
2023-02-13T03:28:09.607Z,11.53
2023-02-13T03:30:46.947Z,11.77
2023-02-13T03:33:40.399Z,12.23
2023-02-13T03:36:36.296Z,10.27
2023-02-13T03:39:10.425Z,11.83
2023-02-13T03:41:43.949Z,11.90
2023-02-13T03:44:17.710Z,9.87
2023-02-13T03:46:49.101Z,11.80
2023-02-13T03:49:40.522Z,12.67
2023-02-13T03:52:14.815Z,10.50
2023-02-13T03:55:06.606Z,11.37
2023-02-13T03:57:55.277Z,12.63
2023-02-13T04:00:25.841Z,11.53
2023-02-13T04:03:01.991Z,13.50
2023-02-13T04:05:33.411Z,12.87
2023-02-13T04:08:01.465Z,12.60
2023-02-13T04:10:35.291Z,12.63
2023-02-13T04:13:11.057Z,10.80
2023-02-13T04:15:44.318Z,12.50
2023-02-13T04:18:16.683Z,12.97
2023-02-13T04:20:44.946Z,11.93
2023-02-13T04:23:14.040Z,11.40
2023-02-13T04:25:47.973Z,10.67
2023-02-13T04:28:16.429Z,10.53
2023-02-13T04:30:44.730Z,9.60
2023-02-13T04:33:12.886Z,11.80
2023-02-13T04:35:40.901Z,11.90
2023-02-13T04:38:09.115Z,12.53
2023-02-13T04:40:37.168Z,11.47
2023-02-13T04:43:06.572Z,12.40
2023-02-13T04:45:34.674Z,11.30
2023-02-13T04:48:02.768Z,11.70
2023-02-13T04:50:30.883Z,10.70
2023-02-13T04:52:59.756Z,9.90
2023-02-13T04:55:29.305Z,11.50
2023-02-13T04:57:58.071Z,10.77
2023-02-13T05:00:29.713Z,11.07
2023-02-13T05:03:05.264Z,12.20
2023-02-13T05:05:33.279Z,10.97
2023-02-13T05:08:01.492Z,10.77
2023-02-13T05:10:30.111Z,11.20
2023-02-13T05:12:58.666Z,11.37
2023-02-13T05:15:52.633Z,10.90
2023-02-13T05:18:20.731Z,8.60
2023-02-13T05:21:09.540Z,11.97
2023-02-13T05:23:36.619Z,11.27
2023-02-13T05:26:05.241Z,10.63
2023-02-13T05:28:50.722Z,11.80
2023-02-13T05:31:25.681Z,11.47
2023-02-13T05:33:53.796Z,11.90
2023-02-13T05:36:22.000Z,12.07
2023-02-13T05:38:50.009Z,12.20
2023-02-13T05:41:18.113Z,12.67
2023-02-13T05:43:46.185Z,11.87
2023-02-13T05:46:14.322Z,12.37
2023-02-13T05:48:43.813Z,12.10
2023-02-13T05:51:12.228Z,12.47
2023-02-13T05:53:40.296Z,12.77
2023-02-13T05:56:08.995Z,12.43
2023-02-13T05:58:37.093Z,13.27
2023-02-13T06:01:05.414Z,12.67
2023-02-13T06:03:34.239Z,13.03
2023-02-13T06:06:03.871Z,14.10
2023-02-13T06:08:32.014Z,11.83
2023-02-13T06:11:00.566Z,12.40
2023-02-13T06:13:28.984Z,12.80
2023-02-13T06:15:57.120Z,13.00
2023-02-13T06:18:25.806Z,13.20
2023-02-13T06:20:53.864Z,12.20
2023-02-13T06:23:23.264Z,12.87
2023-02-13T06:25:51.442Z,13.07
2023-02-13T06:28:19.581Z,12.30
2023-02-13T06:30:48.986Z,12.60
2023-02-13T06:33:17.097Z,14.70
2023-02-13T06:35:45.356Z,12.47
2023-02-13T06:38:13.461Z,12.40
2023-02-13T06:40:43.114Z,12.03
2023-02-13T06:43:11.173Z,12.70
2023-02-13T06:45:39.201Z,14.13
2023-02-13T06:48:07.896Z,13.77
2023-02-13T06:50:36.312Z,13.23
2023-02-13T06:53:04.582Z,14.97
2023-02-13T06:55:32.597Z,20.47
2023-02-13T06:58:02.194Z,18.30
2023-02-13T07:00:30.291Z,15.73
2023-02-13T07:03:03.401Z,14.23
2023-02-13T07:05:31.569Z,14.73
2023-02-13T07:07:59.839Z,14.60
2023-02-13T07:10:28.144Z,12.87
2023-02-13T07:13:05.459Z,14.10
2023-02-13T07:15:37.093Z,13.53
2023-02-13T07:18:05.965Z,14.37
2023-02-13T07:20:34.533Z,15.07
2023-02-13T07:23:04.510Z,14.40
2023-02-13T07:25:33.296Z,14.23
2023-02-13T07:28:03.408Z,45.97
2023-02-13T07:30:32.337Z,16.70
2023-02-13T07:33:03.352Z,15.37
2023-02-13T07:35:32.018Z,13.50
2023-02-13T07:38:00.511Z,15.00
2023-02-13T07:40:28.762Z,13.60
2023-02-13T07:42:56.980Z,13.10
2023-02-13T07:45:49.673Z,12.70
2023-02-13T07:48:19.244Z,13.80
2023-02-13T07:50:47.264Z,13.50
2023-02-13T07:53:15.384Z,13.80
2023-02-13T07:55:43.495Z,12.77
2023-02-13T07:58:11.771Z,12.83
2023-02-13T08:00:39.886Z,12.63
2023-02-13T08:03:08.054Z,11.83
2023-02-13T08:05:38.729Z,11.90
2023-02-13T08:08:06.775Z,11.97
2023-02-13T08:10:52.499Z,12.30
2023-02-13T08:13:20.758Z,12.20
2023-02-13T08:15:48.864Z,12.90
2023-02-13T08:18:21.268Z,12.67
2023-02-13T08:20:50.890Z,12.37
2023-02-13T08:23:19.076Z,13.23
2023-02-13T08:25:47.738Z,11.47
2023-02-13T08:28:15.862Z,12.50
2023-02-13T08:30:43.925Z,10.60
2023-02-13T08:33:12.083Z,12.67
2023-02-13T08:35:40.182Z,12.90
2023-02-13T08:38:10.833Z,12.23
2023-02-13T08:40:39.059Z,13.30
2023-02-13T08:43:08.469Z,10.97
2023-02-13T08:45:37.904Z,13.50
2023-02-13T08:48:07.517Z,12.47
2023-02-13T08:50:37.020Z,12.17
2023-02-13T08:53:06.286Z,12.43
2023-02-13T08:55:35.710Z,13.20
2023-02-13T08:58:04.898Z,12.47
2023-02-13T09:00:33.863Z,13.00
2023-02-13T09:03:03.176Z,13.60
2023-02-13T09:05:32.648Z,11.43
2023-02-13T09:08:02.820Z,14.47
2023-02-13T09:10:31.749Z,13.40
2023-02-13T09:13:02.091Z,12.53
2023-02-13T09:15:30.368Z,10.93
2023-02-13T09:17:58.912Z,12.27
2023-02-13T09:20:30.892Z,12.30
2023-02-13T09:22:59.227Z,12.50
2023-02-13T09:25:27.513Z,12.47
2023-02-13T09:27:55.668Z,12.00
2023-02-13T09:30:25.320Z,11.90
2023-02-13T09:32:54.871Z,12.53
2023-02-13T09:35:23.888Z,11.43
2023-02-13T09:37:52.012Z,11.10
2023-02-13T09:40:26.156Z,13.30
2023-02-13T09:42:56.173Z,13.77
2023-02-13T09:45:25.870Z,13.23
2023-02-13T09:47:53.961Z,14.40
2023-02-13T09:50:25.413Z,14.10
2023-02-13T09:52:55.683Z,16.13
2023-02-13T09:55:30.116Z,13.33
2023-02-13T09:58:05.840Z,12.77
2023-02-13T10:00:40.246Z,12.90
2023-02-13T10:03:22.704Z,13.20
2023-02-13T10:06:09.081Z,12.57
2023-02-13T10:09:02.386Z,13.67
2023-02-13T10:11:43.978Z,17.27
2023-02-13T10:14:17.959Z,15.43
2023-02-13T10:16:52.043Z,22.97
2023-02-13T10:19:37.140Z,14.27
2023-02-13T10:22:11.097Z,14.53
2023-02-13T10:24:45.036Z,12.87
2023-02-13T10:27:22.380Z,13.80
2023-02-13T10:30:12.751Z,15.00
2023-02-13T10:32:51.982Z,14.40
2023-02-13T10:35:28.324Z,21.53
2023-02-13T10:37:59.527Z,13.10
2023-02-13T10:40:33.844Z,16.10
2023-02-13T10:43:08.579Z,19.07
2023-02-13T10:45:57.014Z,15.30
2023-02-13T10:48:42.915Z,13.80
2023-02-13T10:51:18.155Z,15.43
2023-02-13T10:54:00.427Z,12.30
2023-02-13T10:56:33.009Z,13.40
2023-02-13T10:59:10.637Z,14.47
2023-02-13T11:01:46.523Z,13.10
2023-02-13T11:04:19.648Z,12.27
2023-02-13T11:06:53.717Z,13.70
2023-02-13T11:09:21.885Z,12.67
2023-02-13T11:11:50.215Z,11.60
2023-02-13T11:14:20.487Z,13.40
2023-02-13T11:16:57.594Z,13.50
2023-02-13T11:19:32.593Z,13.70
2023-02-13T11:22:05.555Z,13.50
2023-02-13T11:24:34.638Z,12.27
2023-02-13T11:27:08.698Z,13.60
2023-02-13T11:29:38.822Z,14.30
2023-02-13T11:32:21.072Z,13.63
2023-02-13T11:34:51.869Z,11.77
2023-02-13T11:37:23.381Z,12.90
2023-02-13T11:39:52.930Z,12.30
2023-02-13T11:42:33.206Z,14.60
2023-02-13T11:45:03.786Z,12.70
2023-02-13T11:47:38.235Z,12.73
2023-02-13T11:50:22.482Z,13.70
2023-02-13T11:52:57.347Z,12.13
2023-02-13T11:55:32.310Z,13.60
2023-02-13T11:58:02.881Z,13.83
2023-02-13T12:00:37.645Z,13.23
2023-02-13T12:03:28.944Z,12.20
2023-02-13T12:06:08.091Z,13.13
2023-02-13T12:08:38.291Z,13.20
2023-02-13T12:11:18.053Z,11.63
2023-02-13T12:13:46.895Z,14.20
2023-02-13T12:16:22.538Z,12.70
2023-02-13T12:18:54.930Z,12.67
2023-02-13T12:21:41.900Z,14.00
2023-02-13T12:24:15.782Z,14.27
2023-02-13T12:26:46.437Z,14.53
2023-02-13T12:29:27.350Z,14.30
2023-02-13T12:32:05.587Z,13.13
2023-02-13T12:35:17.810Z,13.20
2023-02-13T12:37:59.057Z,14.23
2023-02-13T12:40:58.157Z,13.13
2023-02-13T12:43:43.192Z,14.83
2023-02-13T12:46:18.609Z,12.70
2023-02-13T12:48:54.046Z,12.63
2023-02-13T12:51:38.989Z,11.87
2023-02-13T12:54:33.255Z,13.07
2023-02-13T12:57:14.378Z,12.97
2023-02-13T12:59:57.971Z,12.20
2023-02-13T13:02:45.508Z,13.73
2023-02-13T13:05:30.012Z,13.97
2023-02-13T13:08:14.657Z,13.27
2023-02-13T13:10:58.698Z,14.30
2023-02-13T13:13:39.611Z,12.87
2023-02-13T13:16:14.659Z,12.80
2023-02-13T13:18:56.262Z,13.27
2023-02-13T13:21:34.783Z,13.57
2023-02-13T13:24:10.906Z,13.30
2023-02-13T13:26:44.101Z,13.30
2023-02-13T13:29:16.850Z,13.20
2023-02-13T13:31:50.645Z,13.67
2023-02-13T13:34:24.142Z,15.13
2023-02-13T13:37:00.304Z,12.73
2023-02-13T13:39:42.111Z,13.63
2023-02-13T13:42:18.029Z,12.97
2023-02-13T13:45:05.244Z,11.97
2023-02-13T13:47:47.091Z,13.63
2023-02-13T13:50:22.385Z,14.90
2023-02-13T13:53:12.805Z,14.63
2023-02-13T13:56:00.482Z,14.40
2023-02-13T13:58:37.021Z,13.13
2023-02-13T14:01:30.730Z,14.83
2023-02-13T14:04:02.218Z,13.30
2023-02-13T14:06:48.414Z,13.97
2023-02-13T14:09:40.304Z,15.10
2023-02-13T14:12:46.510Z,12.87
2023-02-13T14:15:50.248Z,16.13
2023-02-13T14:18:24.870Z,14.73
2023-02-13T14:20:55.943Z,14.30
2023-02-13T14:23:57.284Z,14.70
2023-02-13T14:26:40.266Z,14.90
2023-02-13T14:29:35.499Z,14.17
2023-02-13T14:32:19.764Z,11.83
2023-02-13T14:34:58.746Z,13.60
2023-02-13T14:37:36.642Z,13.13
2023-02-13T14:40:30.119Z,13.97
2023-02-13T14:43:01.952Z,13.93
2023-02-13T14:45:33.723Z,13.60
2023-02-13T14:48:09.083Z,14.70
2023-02-13T14:50:46.966Z,13.77
2023-02-13T14:53:22.815Z,14.63
2023-02-13T14:55:58.076Z,13.17
2023-02-13T14:58:29.751Z,12.90
2023-02-13T15:01:03.660Z,13.83
2023-02-13T15:03:39.053Z,12.87
2023-02-13T15:06:15.242Z,13.33
2023-02-13T15:08:48.926Z,14.43
2023-02-13T15:11:39.080Z,13.77
2023-02-13T15:14:25.655Z,12.90
2023-02-13T15:17:00.627Z,11.83
2023-02-13T15:19:29.333Z,15.10
2023-02-13T15:22:01.952Z,15.20
2023-02-13T15:24:36.224Z,13.30
2023-02-13T15:27:06.278Z,14.07
2023-02-13T15:29:48.841Z,15.20
2023-02-13T15:32:22.346Z,15.43
2023-02-13T15:34:50.651Z,13.73
2023-02-13T15:37:25.577Z,14.80
2023-02-13T15:39:53.628Z,14.50
2023-02-13T15:42:21.975Z,15.67
2023-02-13T15:44:55.224Z,17.30
2023-02-13T15:47:30.663Z,15.70
2023-02-13T15:49:59.190Z,14.27
2023-02-13T15:52:32.917Z,15.57
2023-02-13T15:55:01.539Z,14.23
2023-02-13T15:57:30.492Z,14.87
2023-02-13T16:00:01.374Z,12.70
2023-02-13T16:02:39.541Z,15.37
2023-02-13T16:05:08.957Z,14.60
2023-02-13T16:07:50.934Z,14.93
2023-02-13T16:10:26.451Z,13.80
2023-02-13T16:12:55.466Z,15.17
2023-02-13T16:15:25.670Z,14.60
2023-02-13T16:17:53.817Z,13.30
2023-02-13T16:20:25.382Z,15.47
2023-02-13T16:22:59.139Z,14.17
2023-02-13T16:25:31.612Z,17.53
2023-02-13T16:28:02.154Z,16.63
2023-02-13T16:30:35.997Z,15.17
2023-02-13T16:33:24.461Z,15.00
2023-02-13T16:35:55.147Z,14.87
2023-02-13T16:38:29.456Z,14.63
2023-02-13T16:40:59.083Z,13.60
2023-02-13T16:43:42.705Z,16.07
2023-02-13T16:46:33.282Z,14.87
2023-02-13T16:49:20.589Z,13.97
2023-02-13T16:51:52.088Z,12.50
2023-02-13T16:54:29.089Z,14.93
2023-02-13T16:57:01.846Z,13.80
2023-02-13T16:59:51.450Z,14.90
2023-02-13T17:02:22.283Z,14.60
2023-02-13T17:04:53.680Z,14.17
2023-02-13T17:07:27.463Z,14.97
2023-02-13T17:09:59.564Z,15.90
2023-02-13T17:12:28.877Z,15.10
2023-02-13T17:14:58.732Z,14.50
2023-02-13T17:17:29.707Z,14.93
2023-02-13T17:19:57.916Z,15.33
2023-02-13T17:22:34.202Z,14.73
2023-02-13T17:25:05.969Z,13.70
2023-02-13T17:27:34.157Z,13.67
2023-02-13T17:30:02.335Z,15.97
2023-02-13T17:32:30.653Z,15.30
2023-02-13T17:34:58.714Z,17.37
2023-02-13T17:37:29.952Z,14.53
2023-02-13T17:39:58.087Z,14.27
2023-02-13T17:42:29.242Z,14.70
2023-02-13T17:44:59.391Z,14.50
2023-02-13T17:47:30.194Z,15.37
2023-02-13T17:50:08.535Z,13.97
2023-02-13T17:52:39.389Z,14.63
2023-02-13T17:55:09.577Z,13.47
2023-02-13T17:57:38.991Z,15.57
2023-02-13T18:00:08.708Z,15.50
2023-02-13T18:02:43.496Z,17.13
2023-02-13T18:05:12.333Z,15.07
2023-02-13T18:07:42.528Z,16.73
2023-02-13T18:10:14.826Z,16.27
2023-02-13T18:12:45.070Z,17.27
2023-02-13T18:15:13.627Z,18.67
2023-02-13T18:17:42.203Z,17.80
2023-02-13T18:20:13.039Z,17.70
2023-02-13T18:22:41.451Z,17.17
2023-02-13T18:25:10.720Z,17.63
2023-02-13T18:27:38.914Z,17.70
2023-02-13T18:30:09.898Z,17.43
2023-02-13T18:32:38.201Z,16.00
2023-02-13T18:35:07.332Z,17.30
2023-02-13T18:37:35.433Z,17.97
2023-02-13T18:40:03.817Z,17.30
2023-02-13T18:42:31.868Z,17.13
2023-02-13T18:45:00.006Z,17.13
2023-02-13T18:47:29.581Z,18.00
2023-02-13T18:49:57.670Z,17.57
2023-02-13T18:52:25.711Z,17.17
2023-02-13T18:54:53.966Z,17.77
2023-02-13T18:57:22.186Z,17.20
2023-02-13T18:59:50.201Z,18.77
2023-02-13T19:02:18.600Z,18.50
2023-02-13T19:04:48.087Z,19.03
2023-02-13T19:07:16.379Z,19.33
2023-02-13T19:09:44.511Z,19.70
2023-02-13T19:12:12.648Z,19.10
2023-02-13T19:14:40.933Z,17.90
2023-02-13T19:17:10.196Z,23.53
2023-02-13T19:19:38.557Z,30.60
2023-02-13T19:22:08.048Z,18.90
2023-02-13T19:24:36.105Z,18.03
2023-02-13T19:27:04.282Z,17.53
2023-02-13T19:29:32.485Z,19.60
2023-02-13T19:32:00.642Z,18.20
2023-02-13T19:34:28.665Z,19.60
2023-02-13T19:36:56.767Z,18.60
2023-02-13T19:39:26.398Z,20.17
2023-02-13T19:41:54.652Z,16.97
2023-02-13T19:44:22.792Z,18.80
2023-02-13T19:46:50.952Z,18.23
2023-02-13T19:49:19.457Z,18.80
2023-02-13T19:51:47.714Z,19.50
2023-02-13T19:54:15.716Z,18.43
2023-02-13T19:56:45.245Z,19.60
2023-02-13T19:59:13.860Z,17.70
2023-02-13T20:01:43.478Z,18.67
2023-02-13T20:04:11.902Z,18.67
2023-02-13T20:06:40.333Z,20.13
2023-02-13T20:09:11.956Z,19.83
2023-02-13T20:11:41.318Z,19.77
2023-02-13T20:14:14.969Z,19.50
2023-02-13T20:16:45.570Z,19.70
2023-02-13T20:19:15.013Z,17.07
2023-02-13T20:21:44.031Z,19.13
2023-02-13T20:24:13.553Z,20.03
2023-02-13T20:26:42.669Z,21.63
2023-02-13T20:29:12.199Z,21.87
2023-02-13T20:31:41.428Z,20.90
2023-02-13T20:34:10.051Z,21.60
2023-02-13T20:36:38.378Z,22.27
2023-02-13T20:39:08.603Z,19.60
2023-02-13T20:41:38.278Z,20.20
2023-02-13T20:44:08.330Z,22.20
2023-02-13T20:46:39.769Z,20.50
2023-02-13T20:49:09.029Z,20.60
2023-02-13T20:51:37.162Z,20.20
2023-02-13T20:54:05.864Z,21.30
2023-02-13T20:56:33.927Z,23.10
2023-02-13T20:59:02.576Z,22.10
2023-02-13T21:01:33.255Z,24.30
2023-02-13T21:04:03.504Z,22.40
2023-02-13T21:06:33.828Z,21.63
2023-02-13T21:09:02.561Z,21.27
2023-02-13T21:11:30.747Z,25.70
2023-02-13T21:13:59.168Z,22.70
2023-02-13T21:16:29.617Z,22.87
2023-02-13T21:18:59.270Z,21.93
2023-02-13T21:21:31.432Z,23.43
2023-02-13T21:24:01.970Z,23.30
2023-02-13T21:26:30.479Z,22.60
2023-02-13T21:28:59.668Z,22.53
2023-02-13T21:31:30.416Z,24.10
2023-02-13T21:34:00.378Z,24.30
2023-02-13T21:36:30.162Z,21.37
2023-02-13T21:38:58.272Z,20.60
2023-02-13T21:41:26.730Z,22.30
2023-02-13T21:43:55.415Z,21.90
2023-02-13T21:46:25.730Z,27.93
2023-02-13T21:48:55.406Z,18.60
2023-02-13T21:51:24.573Z,19.93
2023-02-13T21:53:54.921Z,23.57
2023-02-13T21:56:25.231Z,34.30
2023-02-13T21:58:54.422Z,30.23
2023-02-13T22:01:26.954Z,21.63
2023-02-13T22:03:59.171Z,22.60
2023-02-13T22:06:29.750Z,22.13
2023-02-13T22:09:00.573Z,23.50
2023-02-13T22:11:29.097Z,22.20
2023-02-13T22:13:59.974Z,23.83
2023-02-13T22:16:28.501Z,20.63
2023-02-13T22:18:56.858Z,22.03
2023-02-13T22:21:26.731Z,20.07
2023-02-13T22:23:55.049Z,20.80
2023-02-13T22:26:26.305Z,21.30
2023-02-13T22:28:54.958Z,21.33
2023-02-13T22:31:25.831Z,22.37
2023-02-13T22:34:04.427Z,20.70
2023-02-13T22:36:34.055Z,21.10
2023-02-13T22:39:02.235Z,25.90
2023-02-13T22:41:32.035Z,21.50
2023-02-13T22:44:00.081Z,23.90
2023-02-13T22:46:30.366Z,20.07
2023-02-13T22:48:58.836Z,21.47
2023-02-13T22:51:30.176Z,22.50
2023-02-13T22:53:59.400Z,19.63
2023-02-13T22:56:28.980Z,17.30
2023-02-13T22:58:58.601Z,18.40
2023-02-13T23:01:28.266Z,19.07
2023-02-13T23:04:01.065Z,18.70
2023-02-13T23:06:29.412Z,20.57
2023-02-13T23:08:58.321Z,21.37
2023-02-13T23:11:45.972Z,29.13
2023-02-13T23:14:15.650Z,29.60
2023-02-13T23:17:01.601Z,24.60
2023-02-13T23:19:34.834Z,22.63
2023-02-13T23:22:02.975Z,18.67
2023-02-13T23:24:31.401Z,19.63
2023-02-13T23:26:59.759Z,29.03
2023-02-13T23:29:29.273Z,20.20
2023-02-13T23:31:57.536Z,33.20
2023-02-13T23:34:25.822Z,20.47
2023-02-13T23:36:53.944Z,19.90
2023-02-13T23:39:24.178Z,22.03
2023-02-13T23:41:52.330Z,18.93
2023-02-13T23:44:20.565Z,18.37
2023-02-13T23:46:49.938Z,23.43
2023-02-13T23:49:18.375Z,22.73
2023-02-13T23:51:46.434Z,20.73
2023-02-13T23:54:18.435Z,18.37
2023-02-13T23:56:46.800Z,18.30
2023-02-13T23:59:16.378Z,20.17
